Araxos, Greece
Current Conditions -  °F | °C
As of 6:50 PM on Friday 28 Nov 2014 (Local Time) from LGRX Reporting Station
Broken Clouds Broken Clouds  
Wind Chill: 61°   Ceiling: 18000
Heat Index: 61°   Visibility: 6mi
Dew Point: 57°   Wind: 12mph
Humidity: 88%   Direction: 70°ENE
Pressure: 30.15"   Gusts: NA
Location:  38.17°N, 21.4°E
Report Text: LGRX 281650Z 07010KT 9999 FEW025 SCT080 BKN180 16/14 Q1021
Loading
Personal Weather Stations






























Interactive Weather Map New forecast layout! Learn more

10-Day Weather Forecast

Advertisements
Track Severe Weather on mobile